sensor_id;sensor_type;location;lat;lon;timestamp;P1;durP1;ratioP1;P2;durP2;ratioP2
60060;SDS011;45933;51.336;12.612;2023-06-19T00:00:50;6.10;;;5.53;;
60060;SDS011;45933;51.336;12.612;2023-06-19T00:03:15;8.95;;;7.00;;
60060;SDS011;45933;51.336;12.612;2023-06-19T00:05:40;6.60;;;6.00;;
60060;SDS011;45933;51.336;12.612;2023-06-19T00:08:05;7.50;;;6.70;;
60060;SDS011;45933;51.336;12.612;2023-06-19T00:10:31;7.30;;;6.40;;
60060;SDS011;45933;51.336;12.612;2023-06-19T00:12:57;6.60;;;5.55;;
60060;SDS011;45933;51.336;12.612;2023-06-19T00:15:22;7.03;;;6.32;;
60060;SDS011;45933;51.336;12.612;2023-06-19T00:17:47;7.03;;;6.20;;
60060;SDS011;45933;51.336;12.612;2023-06-19T00:20:13;7.57;;;6.60;;
60060;SDS011;45933;51.336;12.612;2023-06-19T00:22:38;7.35;;;6.43;;
60060;SDS011;45933;51.336;12.612;2023-06-19T00:25:04;11.68;;;6.65;;
60060;SDS011;45933;51.336;12.612;2023-06-19T00:27:29;8.85;;;6.00;;
60060;SDS011;45933;51.336;12.612;2023-06-19T00:29:54;7.10;;;6.47;;
60060;SDS011;45933;51.336;12.612;2023-06-19T00:32:22;7.53;;;6.70;;
60060;SDS011;45933;51.336;12.612;2023-06-19T00:34:47;7.20;;;6.50;;
60060;SDS011;45933;51.336;12.612;2023-06-19T00:37:13;7.32;;;6.55;;
60060;SDS011;45933;51.336;12.612;2023-06-19T00:39:39;7.20;;;6.50;;
60060;SDS011;45933;51.336;12.612;2023-06-19T00:42:05;7.68;;;6.70;;
60060;SDS011;45933;51.336;12.612;2023-06-19T00:44:31;7.85;;;6.68;;
60060;SDS011;45933;51.336;12.612;2023-06-19T00:46:57;8.27;;;6.82;;
60060;SDS011;45933;51.336;12.612;2023-06-19T00:49:23;7.13;;;6.43;;
60060;SDS011;45933;51.336;12.612;2023-06-19T00:51:51;6.75;;;6.15;;
60060;SDS011;45933;51.336;12.612;2023-06-19T00:54:16;9.07;;;6.22;;
60060;SDS011;45933;51.336;12.612;2023-06-19T00:56:42;7.45;;;5.90;;
60060;SDS011;45933;51.336;12.612;2023-06-19T00:59:11;7.50;;;6.80;;
60060;SDS011;45933;51.336;12.612;2023-06-19T01:01:41;10.25;;;6.60;;
60060;SDS011;45933;51.336;12.612;2023-06-19T01:04:07;8.45;;;6.40;;
60060;SDS011;45933;51.336;12.612;2023-06-19T01:06:35;7.70;;;6.30;;
60060;SDS011;45933;51.336;12.612;2023-06-19T01:09:17;8.43;;;6.40;;
60060;SDS011;45933;51.336;12.612;2023-06-19T01:11:52;7.38;;;6.68;;
60060;SDS011;45933;51.336;12.612;2023-06-19T01:14:25;8.30;;;6.93;;
60060;SDS011;45933;51.336;12.612;2023-06-19T01:16:53;6.93;;;6.07;;
60060;SDS011;45933;51.336;12.612;2023-06-19T01:19:20;7.60;;;6.80;;
60060;SDS011;45933;51.336;12.612;2023-06-19T01:21:46;7.63;;;6.35;;
60060;SDS011;45933;51.336;12.612;2023-06-19T01:24:12;6.78;;;6.07;;
60060;SDS011;45933;51.336;12.612;2023-06-19T01:26:38;7.15;;;6.43;;
60060;SDS011;45933;51.336;12.612;2023-06-19T01:29:04;7.40;;;6.70;;
60060;SDS011;45933;51.336;12.612;2023-06-19T01:31:50;7.00;;;6.30;;
60060;SDS011;45933;51.336;12.612;2023-06-19T01:34:27;7.70;;;6.90;;
60060;SDS011;45933;51.336;12.612;2023-06-19T01:36:55;9.15;;;6.57;;
60060;SDS011;45933;51.336;12.612;2023-06-19T01:39:22;7.43;;;6.72;;
60060;SDS011;45933;51.336;12.612;2023-06-19T01:41:48;7.68;;;6.90;;
60060;SDS011;45933;51.336;12.612;2023-06-19T01:44:14;7.10;;;6.40;;
60060;SDS011;45933;51.336;12.612;2023-06-19T01:46:40;7.50;;;6.80;;
60060;SDS011;45933;51.336;12.612;2023-06-19T01:49:06;7.45;;;6.75;;
60060;SDS011;45933;51.336;12.612;2023-06-19T01:51:33;7.55;;;6.85;;
60060;SDS011;45933;51.336;12.612;2023-06-19T01:53:58;7.80;;;6.82;;
60060;SDS011;45933;51.336;12.612;2023-06-19T01:56:23;8.27;;;6.93;;
60060;SDS011;45933;51.336;12.612;2023-06-19T01:58:49;7.05;;;6.35;;
60060;SDS011;45933;51.336;12.612;2023-06-19T02:01:14;6.78;;;6.07;;
60060;SDS011;45933;51.336;12.612;2023-06-19T02:03:40;10.57;;;6.47;;
60060;SDS011;45933;51.336;12.612;2023-06-19T02:06:05;7.50;;;6.70;;
60060;SDS011;45933;51.336;12.612;2023-06-19T02:08:30;7.10;;;6.40;;
60060;SDS011;45933;51.336;12.612;2023-06-19T02:10:55;6.93;;;6.22;;
60060;SDS011;45933;51.336;12.612;2023-06-19T02:13:20;6.80;;;6.10;;
60060;SDS011;45933;51.336;12.612;2023-06-19T02:15:47;7.22;;;6.35;;
60060;SDS011;45933;51.336;12.612;2023-06-19T02:18:12;7.53;;;6.78;;
60060;SDS011;45933;51.336;12.612;2023-06-19T02:20:37;9.73;;;7.47;;
60060;SDS011;45933;51.336;12.612;2023-06-19T02:23:03;7.55;;;6.63;;
60060;SDS011;45933;51.336;12.612;2023-06-19T02:25:29;7.68;;;6.88;;
60060;SDS011;45933;51.336;12.612;2023-06-19T02:27:54;7.50;;;6.80;;
60060;SDS011;45933;51.336;12.612;2023-06-19T02:30:19;8.32;;;7.13;;
60060;SDS011;45933;51.336;12.612;2023-06-19T02:32:45;9.27;;;7.15;;
60060;SDS011;45933;51.336;12.612;2023-06-19T02:35:10;8.30;;;7.38;;
60060;SDS011;45933;51.336;12.612;2023-06-19T02:37:36;8.63;;;7.07;;
60060;SDS011;45933;51.336;12.612;2023-06-19T02:40:03;9.65;;;7.22;;
60060;SDS011;45933;51.336;12.612;2023-06-19T02:42:32;7.75;;;6.95;;
60060;SDS011;45933;51.336;12.612;2023-06-19T02:44:57;10.02;;;7.00;;
60060;SDS011;45933;51.336;12.612;2023-06-19T02:47:28;7.90;;;6.70;;
60060;SDS011;45933;51.336;12.612;2023-06-19T02:49:54;7.72;;;6.63;;
60060;SDS011;45933;51.336;12.612;2023-06-19T02:52:19;7.95;;;7.15;;
60060;SDS011;45933;51.336;12.612;2023-06-19T02:54:44;7.50;;;6.80;;
60060;SDS011;45933;51.336;12.612;2023-06-19T02:57:10;8.07;;;7.25;;
60060;SDS011;45933;51.336;12.612;2023-06-19T02:59:35;7.20;;;6.50;;
60060;SDS011;45933;51.336;12.612;2023-06-19T03:02:00;7.38;;;6.65;;
60060;SDS011;45933;51.336;12.612;2023-06-19T03:04:25;7.18;;;6.40;;
60060;SDS011;45933;51.336;12.612;2023-06-19T03:06:51;8.88;;;7.47;;
60060;SDS011;45933;51.336;12.612;2023-06-19T03:09:16;7.60;;;6.78;;
60060;SDS011;45933;51.336;12.612;2023-06-19T03:11:41;8.18;;;7.38;;
60060;SDS011;45933;51.336;12.612;2023-06-19T03:14:07;7.45;;;6.75;;
60060;SDS011;45933;51.336;12.612;2023-06-19T03:16:33;8.00;;;6.68;;
60060;SDS011;45933;51.336;12.612;2023-06-19T03:18:59;7.35;;;6.65;;
60060;SDS011;45933;51.336;12.612;2023-06-19T03:21:24;7.90;;;7.18;;
60060;SDS011;45933;51.336;12.612;2023-06-19T03:23:49;7.55;;;6.85;;
60060;SDS011;45933;51.336;12.612;2023-06-19T03:26:15;7.80;;;7.00;;
60060;SDS011;45933;51.336;12.612;2023-06-19T03:28:40;8.18;;;7.38;;
60060;SDS011;45933;51.336;12.612;2023-06-19T03:31:05;8.98;;;7.47;;
60060;SDS011;45933;51.336;12.612;2023-06-19T03:33:31;9.13;;;7.57;;
60060;SDS011;45933;51.336;12.612;2023-06-19T03:35:56;7.72;;;6.93;;
60060;SDS011;45933;51.336;12.612;2023-06-19T03:38:21;8.48;;;7.68;;
60060;SDS011;45933;51.336;12.612;2023-06-19T03:40:47;9.10;;;7.30;;
60060;SDS011;45933;51.336;12.612;2023-06-19T03:43:12;8.55;;;7.50;;
60060;SDS011;45933;51.336;12.612;2023-06-19T03:45:37;8.27;;;7.47;;
60060;SDS011;45933;51.336;12.612;2023-06-19T03:48:03;7.88;;;7.05;;
60060;SDS011;45933;51.336;12.612;2023-06-19T03:50:28;8.82;;;7.30;;
60060;SDS011;45933;51.336;12.612;2023-06-19T03:52:54;10.00;;;8.23;;
60060;SDS011;45933;51.336;12.612;2023-06-19T03:55:19;10.48;;;7.32;;
60060;SDS011;45933;51.336;12.612;2023-06-19T03:57:45;9.32;;;7.72;;
60060;SDS011;45933;51.336;12.612;2023-06-19T04:00:10;7.85;;;7.10;;
60060;SDS011;45933;51.336;12.612;2023-06-19T04:02:38;8.38;;;7.57;;
60060;SDS011;45933;51.336;12.612;2023-06-19T04:05:03;11.02;;;8.20;;
60060;SDS011;45933;51.336;12.612;2023-06-19T04:07:29;8.68;;;7.78;;
60060;SDS011;45933;51.336;12.612;2023-06-19T04:09:56;9.32;;;7.85;;
60060;SDS011;45933;51.336;12.612;2023-06-19T04:12:21;10.27;;;7.85;;
60060;SDS011;45933;51.336;12.612;2023-06-19T04:14:47;8.88;;;8.02;;
60060;SDS011;45933;51.336;12.612;2023-06-19T04:17:13;8.48;;;7.63;;
60060;SDS011;45933;51.336;12.612;2023-06-19T04:19:39;10.38;;;8.68;;
60060;SDS011;45933;51.336;12.612;2023-06-19T04:22:04;9.35;;;7.78;;
60060;SDS011;45933;51.336;12.612;2023-06-19T04:24:30;8.13;;;7.32;;
60060;SDS011;45933;51.336;12.612;2023-06-19T04:26:55;8.65;;;7.72;;
60060;SDS011;45933;51.336;12.612;2023-06-19T04:29:20;9.38;;;7.50;;
60060;SDS011;45933;51.336;12.612;2023-06-19T04:31:46;9.27;;;8.05;;
60060;SDS011;45933;51.336;12.612;2023-06-19T04:34:17;8.88;;;7.43;;
60060;SDS011;45933;51.336;12.612;2023-06-19T04:36:48;10.60;;;8.15;;
60060;SDS011;45933;51.336;12.612;2023-06-19T04:39:14;8.85;;;7.95;;
60060;SDS011;45933;51.336;12.612;2023-06-19T04:41:40;8.60;;;7.28;;
60060;SDS011;45933;51.336;12.612;2023-06-19T04:44:08;13.68;;;8.05;;
60060;SDS011;45933;51.336;12.612;2023-06-19T04:46:34;8.23;;;7.30;;
60060;SDS011;45933;51.336;12.612;2023-06-19T04:48:59;10.95;;;7.53;;
60060;SDS011;45933;51.336;12.612;2023-06-19T04:51:24;9.32;;;7.68;;
60060;SDS011;45933;51.336;12.612;2023-06-19T04:53:51;11.55;;;8.05;;
60060;SDS011;45933;51.336;12.612;2023-06-19T04:56:17;8.77;;;7.90;;
60060;SDS011;45933;51.336;12.612;2023-06-19T04:58:42;9.55;;;8.45;;
60060;SDS011;45933;51.336;12.612;2023-06-19T05:01:14;11.88;;;8.50;;
60060;SDS011;45933;51.336;12.612;2023-06-19T05:03:40;8.88;;;7.97;;
60060;SDS011;45933;51.336;12.612;2023-06-19T05:06:07;9.00;;;8.00;;
60060;SDS011;45933;51.336;12.612;2023-06-19T05:08:33;9.88;;;8.38;;
60060;SDS011;45933;51.336;12.612;2023-06-19T05:10:59;9.02;;;8.13;;
60060;SDS011;45933;51.336;12.612;2023-06-19T05:13:24;9.88;;;8.07;;
60060;SDS011;45933;51.336;12.612;2023-06-19T05:15:49;8.40;;;7.60;;
60060;SDS011;45933;51.336;12.612;2023-06-19T05:18:17;9.82;;;8.30;;
60060;SDS011;45933;51.336;12.612;2023-06-19T05:20:43;8.85;;;7.75;;
60060;SDS011;45933;51.336;12.612;2023-06-19T05:23:09;7.80;;;7.00;;
60060;SDS011;45933;51.336;12.612;2023-06-19T05:25:34;9.05;;;7.80;;
60060;SDS011;45933;51.336;12.612;2023-06-19T05:28:00;11.38;;;8.13;;
60060;SDS011;45933;51.336;12.612;2023-06-19T05:30:25;13.02;;;8.45;;
60060;SDS011;45933;51.336;12.612;2023-06-19T05:32:50;10.30;;;8.07;;
60060;SDS011;45933;51.336;12.612;2023-06-19T05:35:16;8.82;;;7.65;;
60060;SDS011;45933;51.336;12.612;2023-06-19T05:37:41;8.90;;;8.00;;
60060;SDS011;45933;51.336;12.612;2023-06-19T05:40:08;11.80;;;7.75;;
60060;SDS011;45933;51.336;12.612;2023-06-19T05:42:35;9.52;;;7.75;;
60060;SDS011;45933;51.336;12.612;2023-06-19T05:45:03;11.48;;;8.00;;
60060;SDS011;45933;51.336;12.612;2023-06-19T05:47:29;11.27;;;8.23;;
60060;SDS011;45933;51.336;12.612;2023-06-19T05:49:55;11.07;;;7.55;;
60060;SDS011;45933;51.336;12.612;2023-06-19T05:52:21;9.88;;;7.60;;
60060;SDS011;45933;51.336;12.612;2023-06-19T05:54:47;9.25;;;7.63;;
60060;SDS011;45933;51.336;12.612;2023-06-19T05:57:12;12.18;;;7.50;;
60060;SDS011;45933;51.336;12.612;2023-06-19T05:59:37;11.70;;;8.38;;
60060;SDS011;45933;51.336;12.612;2023-06-19T06:02:03;14.20;;;8.35;;
60060;SDS011;45933;51.336;12.612;2023-06-19T06:04:29;9.00;;;7.57;;
60060;SDS011;45933;51.336;12.612;2023-06-19T06:06:55;13.48;;;8.20;;
60060;SDS011;45933;51.336;12.612;2023-06-19T06:09:21;9.90;;;7.93;;
60060;SDS011;45933;51.336;12.612;2023-06-19T06:11:46;9.73;;;7.63;;
60060;SDS011;45933;51.336;12.612;2023-06-19T06:14:12;12.55;;;8.77;;
60060;SDS011;45933;51.336;12.612;2023-06-19T06:16:37;12.63;;;8.30;;
60060;SDS011;45933;51.336;12.612;2023-06-19T06:19:02;12.52;;;8.05;;
60060;SDS011;45933;51.336;12.612;2023-06-19T06:21:27;14.98;;;7.97;;
60060;SDS011;45933;51.336;12.612;2023-06-19T06:23:53;10.90;;;7.90;;
60060;SDS011;45933;51.336;12.612;2023-06-19T06:26:19;8.48;;;7.68;;
60060;SDS011;45933;51.336;12.612;2023-06-19T06:28:44;10.75;;;8.48;;
60060;SDS011;45933;51.336;12.612;2023-06-19T06:31:10;9.32;;;7.70;;
60060;SDS011;45933;51.336;12.612;2023-06-19T06:33:35;12.95;;;7.80;;
60060;SDS011;45933;51.336;12.612;2023-06-19T06:36:02;9.45;;;7.78;;
60060;SDS011;45933;51.336;12.612;2023-06-19T06:38:28;9.25;;;7.97;;
60060;SDS011;45933;51.336;12.612;2023-06-19T06:40:53;17.38;;;8.50;;
60060;SDS011;45933;51.336;12.612;2023-06-19T06:43:18;11.15;;;8.70;;
60060;SDS011;45933;51.336;12.612;2023-06-19T06:45:44;9.05;;;7.82;;
60060;SDS011;45933;51.336;12.612;2023-06-19T06:48:09;9.23;;;8.38;;
60060;SDS011;45933;51.336;12.612;2023-06-19T06:50:34;9.15;;;8.23;;
60060;SDS011;45933;51.336;12.612;2023-06-19T06:53:00;11.43;;;7.93;;
60060;SDS011;45933;51.336;12.612;2023-06-19T06:55:25;17.05;;;7.82;;
60060;SDS011;45933;51.336;12.612;2023-06-19T06:57:51;18.95;;;8.95;;
60060;SDS011;45933;51.336;12.612;2023-06-19T07:00:16;11.68;;;8.38;;
60060;SDS011;45933;51.336;12.612;2023-06-19T07:02:43;10.38;;;8.35;;
60060;SDS011;45933;51.336;12.612;2023-06-19T07:05:09;9.93;;;8.20;;
60060;SDS011;45933;51.336;12.612;2023-06-19T07:07:35;10.48;;;8.82;;
60060;SDS011;45933;51.336;12.612;2023-06-19T07:10:01;10.82;;;8.25;;
60060;SDS011;45933;51.336;12.612;2023-06-19T07:12:26;11.55;;;8.85;;
60060;SDS011;45933;51.336;12.612;2023-06-19T07:14:55;13.50;;;8.43;;
60060;SDS011;45933;51.336;12.612;2023-06-19T07:17:20;9.18;;;8.20;;
60060;SDS011;45933;51.336;12.612;2023-06-19T07:19:46;10.35;;;8.65;;
60060;SDS011;45933;51.336;12.612;2023-06-19T07:22:11;11.52;;;8.60;;
60060;SDS011;45933;51.336;12.612;2023-06-19T07:24:36;16.85;;;9.20;;
60060;SDS011;45933;51.336;12.612;2023-06-19T07:27:01;9.90;;;8.82;;
60060;SDS011;45933;51.336;12.612;2023-06-19T07:29:27;10.68;;;8.93;;
60060;SDS011;45933;51.336;12.612;2023-06-19T07:31:52;11.27;;;8.63;;
60060;SDS011;45933;51.336;12.612;2023-06-19T07:34:18;13.20;;;9.02;;
60060;SDS011;45933;51.336;12.612;2023-06-19T07:36:43;12.60;;;9.27;;
60060;SDS011;45933;51.336;12.612;2023-06-19T07:39:08;10.48;;;9.38;;
60060;SDS011;45933;51.336;12.612;2023-06-19T07:41:36;14.75;;;8.73;;
60060;SDS011;45933;51.336;12.612;2023-06-19T07:44:02;11.45;;;8.75;;
60060;SDS011;45933;51.336;12.612;2023-06-19T07:46:27;11.98;;;9.05;;
60060;SDS011;45933;51.336;12.612;2023-06-19T07:48:52;11.23;;;9.52;;
60060;SDS011;45933;51.336;12.612;2023-06-19T07:51:18;9.77;;;8.70;;
60060;SDS011;45933;51.336;12.612;2023-06-19T07:53:43;11.25;;;8.50;;
60060;SDS011;45933;51.336;12.612;2023-06-19T07:56:08;10.23;;;8.40;;
60060;SDS011;45933;51.336;12.612;2023-06-19T07:58:34;10.05;;;9.05;;
60060;SDS011;45933;51.336;12.612;2023-06-19T08:01:00;13.65;;;8.32;;
60060;SDS011;45933;51.336;12.612;2023-06-19T08:03:25;13.07;;;8.38;;
60060;SDS011;45933;51.336;12.612;2023-06-19T08:05:51;11.20;;;8.55;;
60060;SDS011;45933;51.336;12.612;2023-06-19T08:08:16;13.85;;;9.43;;
60060;SDS011;45933;51.336;12.612;2023-06-19T08:10:41;15.93;;;9.75;;
60060;SDS011;45933;51.336;12.612;2023-06-19T08:13:07;14.40;;;9.00;;
60060;SDS011;45933;51.336;12.612;2023-06-19T08:15:32;11.88;;;9.43;;
60060;SDS011;45933;51.336;12.612;2023-06-19T08:17:57;11.00;;;8.93;;
60060;SDS011;45933;51.336;12.612;2023-06-19T08:20:23;10.57;;;8.25;;
60060;SDS011;45933;51.336;12.612;2023-06-19T08:22:48;12.75;;;8.18;;
60060;SDS011;45933;51.336;12.612;2023-06-19T08:25:13;12.27;;;8.43;;
60060;SDS011;45933;51.336;12.612;2023-06-19T08:27:38;10.93;;;8.48;;
60060;SDS011;45933;51.336;12.612;2023-06-19T08:30:04;9.13;;;8.27;;
60060;SDS011;45933;51.336;12.612;2023-06-19T08:32:30;14.70;;;8.68;;
60060;SDS011;45933;51.336;12.612;2023-06-19T08:34:55;10.35;;;8.25;;
60060;SDS011;45933;51.336;12.612;2023-06-19T08:37:20;10.98;;;8.88;;
60060;SDS011;45933;51.336;12.612;2023-06-19T08:39:46;10.70;;;7.97;;
60060;SDS011;45933;51.336;12.612;2023-06-19T08:42:11;19.52;;;8.18;;
60060;SDS011;45933;51.336;12.612;2023-06-19T08:44:37;17.17;;;8.93;;
60060;SDS011;45933;51.336;12.612;2023-06-19T08:47:02;13.73;;;8.32;;
60060;SDS011;45933;51.336;12.612;2023-06-19T08:49:33;23.98;;;8.70;;
60060;SDS011;45933;51.336;12.612;2023-06-19T08:51:59;17.73;;;8.73;;
60060;SDS011;45933;51.336;12.612;2023-06-19T08:54:26;14.77;;;8.23;;
60060;SDS011;45933;51.336;12.612;2023-06-19T08:56:51;14.20;;;8.98;;
60060;SDS011;45933;51.336;12.612;2023-06-19T08:59:18;12.77;;;8.75;;
60060;SDS011;45933;51.336;12.612;2023-06-19T09:01:47;12.55;;;8.15;;
60060;SDS011;45933;51.336;12.612;2023-06-19T09:04:17;12.55;;;8.43;;
60060;SDS011;45933;51.336;12.612;2023-06-19T09:06:53;12.57;;;7.85;;
60060;SDS011;45933;51.336;12.612;2023-06-19T09:09:21;8.40;;;7.32;;
60060;SDS011;45933;51.336;12.612;2023-06-19T09:14:56;12.55;;;7.32;;
60060;SDS011;45933;51.336;12.612;2023-06-19T09:17:18;11.40;;;8.00;;
60060;SDS011;45933;51.336;12.612;2023-06-19T09:19:51;10.07;;;7.88;;
60060;SDS011;45933;51.336;12.612;2023-06-19T09:22:20;9.32;;;7.20;;
60060;SDS011;45933;51.336;12.612;2023-06-19T09:24:46;13.48;;;7.43;;
60060;SDS011;45933;51.336;12.612;2023-06-19T09:27:15;9.70;;;7.35;;
60060;SDS011;45933;51.336;12.612;2023-06-19T09:29:49;9.68;;;7.43;;
60060;SDS011;45933;51.336;12.612;2023-06-19T09:32:22;8.50;;;7.13;;
60060;SDS011;45933;51.336;12.612;2023-06-19T09:34:50;10.13;;;7.38;;
60060;SDS011;45933;51.336;12.612;2023-06-19T09:37:49;9.02;;;7.50;;
60060;SDS011;45933;51.336;12.612;2023-06-19T09:40:10;7.85;;;7.15;;
60060;SDS011;45933;51.336;12.612;2023-06-19T09:42:39;8.15;;;7.20;;
60060;SDS011;45933;51.336;12.612;2023-06-19T09:45:06;7.60;;;6.82;;
60060;SDS011;45933;51.336;12.612;2023-06-19T09:47:37;7.55;;;6.80;;
60060;SDS011;45933;51.336;12.612;2023-06-19T09:50:04;7.28;;;6.57;;
60060;SDS011;45933;51.336;12.612;2023-06-19T09:52:31;10.57;;;7.03;;
60060;SDS011;45933;51.336;12.612;2023-06-19T09:54:57;7.78;;;6.60;;
60060;SDS011;45933;51.336;12.612;2023-06-19T09:57:22;11.93;;;7.40;;
60060;SDS011;45933;51.336;12.612;2023-06-19T09:59:53;7.70;;;6.88;;
60060;SDS011;45933;51.336;12.612;2023-06-19T10:02:21;9.02;;;6.80;;
60060;SDS011;45933;51.336;12.612;2023-06-19T10:04:52;8.85;;;7.95;;
60060;SDS011;45933;51.336;12.612;2023-06-19T10:07:20;7.65;;;6.90;;
60060;SDS011;45933;51.336;12.612;2023-06-19T10:10:03;8.05;;;7.18;;
60060;SDS011;45933;51.336;12.612;2023-06-19T10:12:41;9.80;;;7.72;;
60060;SDS011;45933;51.336;12.612;2023-06-19T10:15:17;8.18;;;7.38;;
60060;SDS011;45933;51.336;12.612;2023-06-19T10:17:44;8.18;;;7.20;;
60060;SDS011;45933;51.336;12.612;2023-06-19T10:20:21;11.75;;;7.75;;
60060;SDS011;45933;51.336;12.612;2023-06-19T10:23:35;8.23;;;7.43;;
60060;SDS011;45933;51.336;12.612;2023-06-19T10:25:39;7.55;;;6.72;;
60060;SDS011;45933;51.336;12.612;2023-06-19T10:31:02;8.65;;;7.82;;
60060;SDS011;45933;51.336;12.612;2023-06-19T10:33:30;8.20;;;7.40;;
60060;SDS011;45933;51.336;12.612;2023-06-19T10:35:59;8.95;;;6.68;;
60060;SDS011;45933;51.336;12.612;2023-06-19T10:38:25;7.95;;;7.18;;
60060;SDS011;45933;51.336;12.612;2023-06-19T10:40:51;8.75;;;7.80;;
60060;SDS011;45933;51.336;12.612;2023-06-19T10:43:20;7.78;;;6.97;;
60060;SDS011;45933;51.336;12.612;2023-06-19T10:45:53;8.63;;;7.63;;
60060;SDS011;45933;51.336;12.612;2023-06-19T10:48:23;9.18;;;8.13;;
60060;SDS011;45933;51.336;12.612;2023-06-19T10:50:49;8.93;;;8.10;;
60060;SDS011;45933;51.336;12.612;2023-06-19T10:53:29;13.10;;;7.68;;
60060;SDS011;45933;51.336;12.612;2023-06-19T10:55:57;9.15;;;7.38;;
60060;SDS011;45933;51.336;12.612;2023-06-19T10:58:23;8.00;;;7.30;;
60060;SDS011;45933;51.336;12.612;2023-06-19T11:00:49;8.50;;;7.70;;
60060;SDS011;45933;51.336;12.612;2023-06-19T11:03:14;8.40;;;7.57;;
60060;SDS011;45933;51.336;12.612;2023-06-19T11:05:43;8.88;;;8.07;;
60060;SDS011;45933;51.336;12.612;2023-06-19T11:08:08;9.02;;;8.18;;
60060;SDS011;45933;51.336;12.612;2023-06-19T11:10:34;9.90;;;7.45;;
60060;SDS011;45933;51.336;12.612;2023-06-19T11:12:59;8.95;;;7.72;;
60060;SDS011;45933;51.336;12.612;2023-06-19T11:15:28;8.70;;;7.80;;
60060;SDS011;45933;51.336;12.612;2023-06-19T11:17:55;8.48;;;7.68;;
60060;SDS011;45933;51.336;12.612;2023-06-19T11:20:20;9.15;;;8.25;;
60060;SDS011;45933;51.336;12.612;2023-06-19T11:22:46;8.73;;;7.93;;
60060;SDS011;45933;51.336;12.612;2023-06-19T11:25:11;8.05;;;7.35;;
60060;SDS011;45933;51.336;12.612;2023-06-19T11:27:37;9.20;;;8.18;;
60060;SDS011;45933;51.336;12.612;2023-06-19T11:30:04;8.40;;;7.70;;
60060;SDS011;45933;51.336;12.612;2023-06-19T11:32:33;8.80;;;8.00;;
60060;SDS011;45933;51.336;12.612;2023-06-19T11:35:06;9.07;;;8.23;;
60060;SDS011;45933;51.336;12.612;2023-06-19T11:37:36;8.50;;;7.80;;
60060;SDS011;45933;51.336;12.612;2023-06-19T11:40:04;8.73;;;7.93;;
60060;SDS011;45933;51.336;12.612;2023-06-19T11:42:48;8.60;;;7.90;;
60060;SDS011;45933;51.336;12.612;2023-06-19T11:45:16;8.70;;;7.90;;
60060;SDS011;45933;51.336;12.612;2023-06-19T11:47:42;12.95;;;9.15;;
60060;SDS011;45933;51.336;12.612;2023-06-19T11:50:09;9.35;;;8.27;;
60060;SDS011;45933;51.336;12.612;2023-06-19T11:52:34;8.68;;;7.82;;
60060;SDS011;45933;51.336;12.612;2023-06-19T11:55:00;9.88;;;8.45;;
60060;SDS011;45933;51.336;12.612;2023-06-19T11:57:26;8.73;;;7.93;;
60060;SDS011;45933;51.336;12.612;2023-06-19T11:59:52;9.07;;;8.18;;
60060;SDS011;45933;51.336;12.612;2023-06-19T12:02:17;9.05;;;8.07;;
60060;SDS011;45933;51.336;12.612;2023-06-19T12:04:42;9.40;;;8.50;;
60060;SDS011;45933;51.336;12.612;2023-06-19T12:07:08;9.73;;;8.88;;
60060;SDS011;45933;51.336;12.612;2023-06-19T12:09:33;9.32;;;8.23;;
60060;SDS011;45933;51.336;12.612;2023-06-19T12:11:59;9.73;;;8.75;;
60060;SDS011;45933;51.336;12.612;2023-06-19T12:14:25;8.75;;;7.88;;
60060;SDS011;45933;51.336;12.612;2023-06-19T12:16:51;9.32;;;8.43;;
60060;SDS011;45933;51.336;12.612;2023-06-19T12:19:17;8.68;;;7.90;;
60060;SDS011;45933;51.336;12.612;2023-06-19T12:21:42;8.57;;;7.78;;
60060;SDS011;45933;51.336;12.612;2023-06-19T12:24:07;11.57;;;8.98;;
60060;SDS011;45933;51.336;12.612;2023-06-19T12:26:36;10.77;;;9.77;;
60060;SDS011;45933;51.336;12.612;2023-06-19T12:29:02;9.38;;;8.48;;
60060;SDS011;45933;51.336;12.612;2023-06-19T12:31:28;9.32;;;8.52;;
60060;SDS011;45933;51.336;12.612;2023-06-19T12:33:54;9.32;;;8.43;;
60060;SDS011;45933;51.336;12.612;2023-06-19T12:36:19;9.98;;;8.98;;
60060;SDS011;45933;51.336;12.612;2023-06-19T12:38:45;10.43;;;9.48;;
60060;SDS011;45933;51.336;12.612;2023-06-19T12:41:11;10.10;;;9.20;;
60060;SDS011;45933;51.336;12.612;2023-06-19T12:43:37;10.43;;;9.43;;
60060;SDS011;45933;51.336;12.612;2023-06-19T12:46:02;10.23;;;9.27;;
60060;SDS011;45933;51.336;12.612;2023-06-19T12:48:28;10.45;;;9.45;;
60060;SDS011;45933;51.336;12.612;2023-06-19T12:50:53;10.82;;;9.77;;
60060;SDS011;45933;51.336;12.612;2023-06-19T12:53:19;10.32;;;9.32;;
60060;SDS011;45933;51.336;12.612;2023-06-19T12:55:47;11.35;;;9.02;;
60060;SDS011;45933;51.336;12.612;2023-06-19T12:58:13;11.15;;;9.20;;
60060;SDS011;45933;51.336;12.612;2023-06-19T13:00:38;10.15;;;9.15;;
60060;SDS011;45933;51.336;12.612;2023-06-19T13:03:03;10.10;;;9.07;;
60060;SDS011;45933;51.336;12.612;2023-06-19T13:05:29;10.32;;;9.23;;
60060;SDS011;45933;51.336;12.612;2023-06-19T13:07:54;10.27;;;9.18;;
60060;SDS011;45933;51.336;12.612;2023-06-19T13:10:19;9.50;;;8.65;;
60060;SDS011;45933;51.336;12.612;2023-06-19T13:12:45;11.60;;;10.15;;
60060;SDS011;45933;51.336;12.612;2023-06-19T13:15:10;10.23;;;9.30;;
60060;SDS011;45933;51.336;12.612;2023-06-19T13:17:36;10.27;;;9.38;;
60060;SDS011;45933;51.336;12.612;2023-06-19T13:20:01;9.95;;;9.05;;
60060;SDS011;45933;51.336;12.612;2023-06-19T13:22:27;9.27;;;8.45;;
60060;SDS011;45933;51.336;12.612;2023-06-19T13:24:52;8.88;;;8.05;;
60060;SDS011;45933;51.336;12.612;2023-06-19T13:27:17;10.05;;;8.63;;
60060;SDS011;45933;51.336;12.612;2023-06-19T13:29:43;10.57;;;9.57;;
60060;SDS011;45933;51.336;12.612;2023-06-19T13:32:08;14.00;;;8.98;;
60060;SDS011;45933;51.336;12.612;2023-06-19T13:34:34;10.27;;;9.27;;
60060;SDS011;45933;51.336;12.612;2023-06-19T13:36:59;9.88;;;8.45;;
60060;SDS011;45933;51.336;12.612;2023-06-19T13:39:24;10.35;;;9.38;;
60060;SDS011;45933;51.336;12.612;2023-06-19T13:41:52;9.98;;;9.07;;
60060;SDS011;45933;51.336;12.612;2023-06-19T13:44:17;9.52;;;8.52;;
60060;SDS011;45933;51.336;12.612;2023-06-19T13:46:44;9.32;;;8.35;;
60060;SDS011;45933;51.336;12.612;2023-06-19T13:49:09;9.02;;;8.23;;
60060;SDS011;45933;51.336;12.612;2023-06-19T13:51:35;9.23;;;8.32;;
60060;SDS011;45933;51.336;12.612;2023-06-19T13:54:01;9.80;;;8.45;;
60060;SDS011;45933;51.336;12.612;2023-06-19T13:56:29;8.73;;;7.88;;
60060;SDS011;45933;51.336;12.612;2023-06-19T13:58:54;9.32;;;8.52;;
60060;SDS011;45933;51.336;12.612;2023-06-19T14:01:20;9.40;;;8.60;;
60060;SDS011;45933;51.336;12.612;2023-06-19T14:03:45;9.05;;;8.25;;
60060;SDS011;45933;51.336;12.612;2023-06-19T14:06:10;10.35;;;8.60;;
60060;SDS011;45933;51.336;12.612;2023-06-19T14:08:37;9.15;;;8.25;;
60060;SDS011;45933;51.336;12.612;2023-06-19T14:11:04;8.48;;;7.63;;
60060;SDS011;45933;51.336;12.612;2023-06-19T14:13:30;8.77;;;7.97;;
60060;SDS011;45933;51.336;12.612;2023-06-19T14:15:55;9.13;;;8.23;;
60060;SDS011;45933;51.336;12.612;2023-06-19T14:18:21;8.90;;;8.20;;
60060;SDS011;45933;51.336;12.612;2023-06-19T14:20:46;8.20;;;7.50;;
60060;SDS011;45933;51.336;12.612;2023-06-19T14:23:12;9.45;;;8.35;;
60060;SDS011;45933;51.336;12.612;2023-06-19T14:25:37;9.13;;;8.18;;
60060;SDS011;45933;51.336;12.612;2023-06-19T14:28:02;9.93;;;8.45;;
60060;SDS011;45933;51.336;12.612;2023-06-19T14:30:29;8.80;;;8.00;;
60060;SDS011;45933;51.336;12.612;2023-06-19T14:32:54;8.98;;;8.07;;